createdAt,value
2022-11-04T00:00:56.607Z,3.08
2022-11-04T00:03:24.847Z,2.63
2022-11-04T00:05:54.189Z,2.50
2022-11-04T00:08:24.695Z,3.28
2022-11-04T00:11:13.130Z,2.53
2022-11-04T00:13:41.259Z,4.15
2022-11-04T00:16:26.761Z,2.13
2022-11-04T00:18:55.378Z,6.63
2022-11-04T00:21:42.592Z,3.75
2022-11-04T00:24:30.130Z,6.68
2022-11-04T00:27:16.098Z,5.97
2022-11-04T00:29:44.489Z,7.72
2022-11-04T00:32:30.279Z,3.83
2022-11-04T00:34:58.428Z,3.17
2022-11-04T00:37:27.838Z,3.95
2022-11-04T00:39:55.968Z,3.80
2022-11-04T00:42:24.169Z,3.92
2022-11-04T00:44:52.276Z,4.18
2022-11-04T00:47:20.389Z,4.60
2022-11-04T00:49:48.498Z,2.65
2022-11-04T00:52:16.587Z,2.83
2022-11-04T00:54:46.268Z,2.95
2022-11-04T00:57:15.128Z,2.42
2022-11-04T00:59:43.458Z,2.33
2022-11-04T01:02:11.893Z,3.50
2022-11-04T01:04:40.142Z,2.53
2022-11-04T01:07:08.168Z,1.80
2022-11-04T01:09:36.269Z,1.23
2022-11-04T01:12:05.909Z,1.40
2022-11-04T01:14:34.058Z,1.80
2022-11-04T01:17:02.369Z,2.92
2022-11-04T01:19:30.469Z,1.73
2022-11-04T01:21:58.508Z,2.45
2022-11-04T01:24:26.728Z,3.90
2022-11-04T01:26:54.747Z,2.40
2022-11-04T01:29:24.188Z,1.83
2022-11-04T01:31:52.831Z,2.35
2022-11-04T01:34:21.480Z,1.40
2022-11-04T01:36:49.539Z,1.40
2022-11-04T01:39:17.691Z,2.08
2022-11-04T01:41:45.757Z,3.20
2022-11-04T01:44:50.828Z,2.10
2022-11-04T01:47:41.893Z,3.75
2022-11-04T01:50:13.160Z,2.35
2022-11-04T01:52:46.801Z,2.70
2022-11-04T01:55:19.912Z,4.22
2022-11-04T01:57:51.170Z,3.58
2022-11-04T02:00:20.047Z,3.88
2022-11-04T02:02:57.758Z,3.75
2022-11-04T02:05:25.807Z,3.22
2022-11-04T02:07:58.095Z,2.05
2022-11-04T02:10:28.528Z,3.25
2022-11-04T02:12:57.026Z,5.43
2022-11-04T02:15:31.877Z,4.13
2022-11-04T02:18:14.019Z,2.53
2022-11-04T02:20:59.769Z,2.15
2022-11-04T02:23:47.188Z,3.30
2022-11-04T02:26:38.708Z,2.92
2022-11-04T02:29:21.589Z,2.85
2022-11-04T02:31:58.528Z,3.08
2022-11-04T02:34:37.989Z,3.50
2022-11-04T02:37:14.328Z,3.50
2022-11-04T02:39:52.656Z,4.13
2022-11-04T02:42:29.061Z,4.10
2022-11-04T02:45:12.178Z,3.83
2022-11-04T02:47:44.649Z,5.15
2022-11-04T02:50:19.788Z,6.55
2022-11-04T02:52:54.606Z,5.15
2022-11-04T02:55:26.877Z,3.33
2022-11-04T02:57:59.617Z,5.05
2022-11-04T03:00:30.308Z,5.82
2022-11-04T03:03:03.689Z,5.43
2022-11-04T03:05:36.070Z,5.03
2022-11-04T03:08:09.831Z,9.13
2022-11-04T03:10:42.499Z,6.00
2022-11-04T03:13:14.958Z,6.65
2022-11-04T03:15:51.697Z,3.00
2022-11-04T03:18:25.702Z,3.83
2022-11-04T03:20:57.649Z,3.72
2022-11-04T03:23:25.895Z,5.45
2022-11-04T03:25:59.469Z,7.93
2022-11-04T03:28:37.329Z,5.40
2022-11-04T03:31:10.789Z,7.85
2022-11-04T03:33:46.599Z,6.38
2022-11-04T03:36:14.788Z,4.47
2022-11-04T03:38:43.137Z,6.03
2022-11-04T03:41:16.348Z,5.82
2022-11-04T03:43:44.707Z,7.78
2022-11-04T03:46:14.110Z,3.72
2022-11-04T03:48:45.077Z,6.55
2022-11-04T03:51:13.208Z,4.82
2022-11-04T03:53:42.556Z,4.55
2022-11-04T03:56:29.968Z,3.95
2022-11-04T03:59:11.937Z,4.65
2022-11-04T04:01:51.090Z,6.95
2022-11-04T04:04:28.128Z,9.20
2022-11-04T04:07:02.269Z,5.00
2022-11-04T04:09:39.597Z,5.45
2022-11-04T04:12:15.239Z,4.88
2022-11-04T04:14:47.759Z,6.40
2022-11-04T04:17:22.771Z,5.88
2022-11-04T04:19:55.928Z,5.93
2022-11-04T04:22:27.208Z,5.03
2022-11-04T04:25:16.968Z,4.85
2022-11-04T04:27:46.373Z,5.28
2022-11-04T04:30:17.179Z,5.28
2022-11-04T04:32:50.347Z,6.75
2022-11-04T04:35:36.388Z,6.55
2022-11-04T04:38:25.438Z,9.68
2022-11-04T04:41:21.547Z,6.00
2022-11-04T04:44:07.118Z,8.88
2022-11-04T04:46:36.549Z,3.72
2022-11-04T04:49:09.483Z,5.50
2022-11-04T04:51:42.170Z,7.57
2022-11-04T04:54:10.312Z,4.47
2022-11-04T04:56:38.396Z,7.80
2022-11-04T04:59:07.117Z,3.78
2022-11-04T05:01:35.352Z,5.22
2022-11-04T05:04:03.509Z,3.78
2022-11-04T05:06:32.858Z,6.30
2022-11-04T05:09:00.959Z,5.10
2022-11-04T05:11:29.017Z,8.48
2022-11-04T05:13:57.148Z,3.47
2022-11-04T05:16:25.313Z,4.20
2022-11-04T05:18:53.678Z,5.88
2022-11-04T05:21:21.792Z,6.47
2022-11-04T05:23:51.118Z,4.93
2022-11-04T05:26:19.147Z,6.80
2022-11-04T05:28:47.267Z,7.18
2022-11-04T05:31:15.380Z,8.90
2022-11-04T05:33:43.557Z,5.80
2022-11-04T05:36:14.107Z,3.50
2022-11-04T05:38:43.289Z,7.13
2022-11-04T05:41:25.813Z,3.72
2022-11-04T05:43:54.351Z,6.40
2022-11-04T05:46:22.486Z,3.65
2022-11-04T05:48:50.717Z,3.38
2022-11-04T05:51:21.497Z,3.90
2022-11-04T05:53:49.648Z,6.75
2022-11-04T05:56:19.108Z,4.88
2022-11-04T05:58:47.228Z,3.03
2022-11-04T06:01:26.301Z,8.10
2022-11-04T06:03:55.312Z,4.07
2022-11-04T06:06:24.688Z,7.18
2022-11-04T06:08:53.437Z,3.90
2022-11-04T06:11:23.338Z,4.60
2022-11-04T06:13:51.947Z,4.57
2022-11-04T06:16:19.995Z,6.85
2022-11-04T06:18:48.137Z,6.18
2022-11-04T06:21:26.298Z,11.25
2022-11-04T06:23:56.823Z,4.93
2022-11-04T06:26:28.883Z,7.38
2022-11-04T06:28:57.910Z,5.50
2022-11-04T06:31:25.938Z,8.60
2022-11-04T06:33:54.127Z,6.15
2022-11-04T06:36:22.157Z,5.50
2022-11-04T06:38:50.398Z,4.28
2022-11-04T06:41:18.831Z,6.22
2022-11-04T06:43:48.248Z,6.00
2022-11-04T06:46:36.103Z,6.35
2022-11-04T06:49:05.418Z,5.05
2022-11-04T06:51:34.057Z,6.90
2022-11-04T06:54:02.218Z,6.05
2022-11-04T06:56:30.387Z,6.82
2022-11-04T06:58:59.869Z,6.50
2022-11-04T07:01:30.624Z,4.85
2022-11-04T07:04:00.608Z,6.72
2022-11-04T07:06:30.079Z,6.88
2022-11-04T07:09:00.696Z,9.50
2022-11-04T07:11:31.281Z,8.25
2022-11-04T07:14:00.793Z,6.40
2022-11-04T07:16:28.899Z,6.30
2022-11-04T07:18:57.356Z,9.98
2022-11-04T07:21:25.625Z,5.40
2022-11-04T07:23:53.825Z,5.40
2022-11-04T07:26:22.055Z,9.43
2022-11-04T07:28:50.318Z,9.07
2022-11-04T07:31:20.108Z,6.85
2022-11-04T07:33:50.220Z,11.15
2022-11-04T07:36:19.576Z,5.93
2022-11-04T07:38:48.088Z,4.82
2022-11-04T07:41:18.172Z,7.93
2022-11-04T07:43:50.186Z,5.97
2022-11-04T07:46:20.917Z,5.55
2022-11-04T07:48:49.257Z,5.53
2022-11-04T07:51:19.839Z,4.00
2022-11-04T07:53:48.367Z,4.10
2022-11-04T07:56:16.616Z,5.45
2022-11-04T07:58:44.688Z,6.68
2022-11-04T08:01:14.394Z,5.03
2022-11-04T08:03:43.958Z,8.15
2022-11-04T08:06:14.100Z,7.88
2022-11-04T08:08:43.604Z,5.15
2022-11-04T08:11:17.405Z,5.88
2022-11-04T08:13:47.605Z,2.67
2022-11-04T08:16:17.798Z,3.47
2022-11-04T08:18:48.501Z,2.85
2022-11-04T08:21:17.489Z,2.58
2022-11-04T08:23:46.222Z,5.47
2022-11-04T08:26:17.689Z,5.78
2022-11-04T08:28:46.248Z,2.65
2022-11-04T08:31:17.555Z,3.03
2022-11-04T08:33:47.918Z,2.08
2022-11-04T08:36:18.739Z,4.00
2022-11-04T08:38:46.988Z,4.03
2022-11-04T08:41:17.194Z,1.48
2022-11-04T08:43:45.385Z,4.55
2022-11-04T08:46:14.029Z,3.25
2022-11-04T08:48:44.748Z,3.83
2022-11-04T08:51:16.999Z,2.95
2022-11-04T08:53:45.433Z,2.92
2022-11-04T08:56:16.718Z,3.00
2022-11-04T08:58:44.960Z,4.75
2022-11-04T09:01:13.923Z,2.40
2022-11-04T09:03:43.604Z,2.30
2022-11-04T09:06:15.872Z,1.90
2022-11-04T09:08:43.999Z,3.47
2022-11-04T09:11:14.048Z,1.42
2022-11-04T09:13:42.618Z,4.50
2022-11-04T09:16:12.668Z,4.20
2022-11-04T09:18:41.142Z,2.63
2022-11-04T09:21:10.772Z,4.72
2022-11-04T09:23:40.473Z,1.83
2022-11-04T09:26:10.787Z,2.20
2022-11-04T09:28:39.098Z,2.03
2022-11-04T09:31:08.561Z,1.50
2022-11-04T09:33:36.879Z,3.88
2022-11-04T09:36:05.477Z,3.30
2022-11-04T09:38:33.835Z,3.80
2022-11-04T09:41:09.390Z,1.75
2022-11-04T09:43:50.420Z,1.00
2022-11-04T09:46:18.859Z,1.70
2022-11-04T09:48:50.292Z,2.40
2022-11-04T09:51:47.938Z,1.05
2022-11-04T09:54:17.966Z,1.02
2022-11-04T09:56:51.399Z,2.40
2022-11-04T09:59:25.856Z,2.10
2022-11-04T10:02:16.470Z,2.30
2022-11-04T10:05:02.488Z,3.35
2022-11-04T10:07:47.385Z,2.20
2022-11-04T10:10:25.158Z,2.40
2022-11-04T10:13:10.032Z,3.97
2022-11-04T10:15:53.789Z,2.58
2022-11-04T10:18:39.422Z,2.35
2022-11-04T10:21:17.706Z,1.23
2022-11-04T10:23:52.448Z,1.67
2022-11-04T10:26:28.971Z,3.35
2022-11-04T10:29:05.599Z,1.70
2022-11-04T10:31:38.482Z,3.38
2022-11-04T10:34:10.028Z,3.90
2022-11-04T10:36:40.827Z,1.95
2022-11-04T10:39:18.429Z,2.33
2022-11-04T10:41:47.724Z,3.38
2022-11-04T10:44:22.979Z,2.17
2022-11-04T10:47:00.471Z,1.50
2022-11-04T10:50:22.325Z,2.00
2022-11-04T10:52:42.941Z,2.13
2022-11-04T10:55:22.400Z,2.13
2022-11-04T10:57:50.727Z,1.45
2022-11-04T11:03:30.424Z,2.42
2022-11-04T11:06:23.758Z,0.65
2022-11-04T11:08:53.050Z,1.92
2022-11-04T11:11:37.869Z,1.92
2022-11-04T11:14:06.138Z,1.13
2022-11-04T11:16:34.239Z,1.55
2022-11-04T11:19:18.755Z,1.35
2022-11-04T11:21:49.989Z,1.02
2022-11-04T11:24:22.868Z,2.65
2022-11-04T11:26:53.287Z,2.85
2022-11-04T11:29:26.303Z,3.40
2022-11-04T11:31:56.220Z,5.77
2022-11-04T11:34:29.330Z,1.52
2022-11-04T11:36:58.658Z,1.35
2022-11-04T11:39:29.145Z,11.38
2022-11-04T11:42:01.340Z,3.53
2022-11-04T11:44:33.216Z,0.85
2022-11-04T11:47:03.478Z,8.68
2022-11-04T11:49:35.981Z,2.08
2022-11-04T11:52:28.619Z,1.10
2022-11-04T11:55:04.767Z,0.77
2022-11-04T11:57:43.193Z,1.98
2022-11-04T12:03:15.600Z,1.27
2022-11-04T12:11:55.511Z,0.82
2022-11-04T12:14:34.147Z,1.70
2022-11-04T12:17:08.018Z,3.50
2022-11-04T12:19:51.554Z,1.60
2022-11-04T12:22:28.351Z,0.32
2022-11-04T12:25:05.242Z,2.05
2022-11-04T12:27:40.479Z,1.55
2022-11-04T12:30:13.607Z,0.75
2022-11-04T12:32:54.719Z,0.88
2022-11-04T12:35:37.206Z,0.47
2022-11-04T12:38:21.343Z,0.90
2022-11-04T12:43:49.986Z,3.42
2022-11-04T12:46:27.639Z,0.77
2022-11-04T12:49:14.097Z,0.45
2022-11-04T12:51:51.577Z,5.20
2022-11-04T12:54:39.056Z,0.45
2022-11-04T12:57:19.288Z,0.90
2022-11-04T13:00:04.826Z,0.80
2022-11-04T13:02:37.792Z,0.90
2022-11-04T13:05:16.438Z,1.70
2022-11-04T13:07:51.400Z,3.67
2022-11-04T13:10:26.450Z,1.35
2022-11-04T13:12:57.069Z,1.63
2022-11-04T13:15:29.028Z,0.47
2022-11-04T13:18:00.778Z,0.50
2022-11-04T13:20:36.471Z,0.52
2022-11-04T13:23:10.032Z,0.65
2022-11-04T13:28:13.467Z,0.22
2022-11-04T13:30:49.099Z,0.32
2022-11-04T13:33:26.934Z,0.57
2022-11-04T13:36:01.396Z,0.50
2022-11-04T13:38:35.891Z,4.47
2022-11-04T13:41:29.388Z,0.30
2022-11-04T13:44:00.283Z,0.87
2022-11-04T13:46:32.096Z,2.63
2022-11-04T13:49:05.921Z,0.28
2022-11-04T13:54:06.409Z,0.45
2022-11-04T13:56:38.968Z,1.65
2022-11-04T13:59:20.984Z,0.52
2022-11-04T14:01:49.843Z,2.55
2022-11-04T14:04:29.143Z,3.20
2022-11-04T14:07:00.687Z,0.80
2022-11-04T14:09:53.671Z,0.30
2022-11-04T14:12:36.205Z,0.50
2022-11-04T14:15:11.590Z,0.65
2022-11-04T14:17:59.393Z,4.40
2022-11-04T14:20:31.377Z,2.60
2022-11-04T14:23:02.205Z,1.95
2022-11-04T14:25:34.318Z,0.65
2022-11-04T14:28:17.579Z,0.40
2022-11-04T14:30:50.568Z,0.73
2022-11-04T14:33:24.461Z,1.00
2022-11-04T14:35:54.710Z,1.77
2022-11-04T14:38:29.629Z,1.75
2022-11-04T14:41:22.389Z,0.40
2022-11-04T14:43:55.388Z,1.10
2022-11-04T14:46:26.888Z,0.30
2022-11-04T14:48:57.607Z,0.60
2022-11-04T14:51:29.439Z,1.88
2022-11-04T14:54:05.848Z,1.45
2022-11-04T14:56:34.145Z,1.05
2022-11-04T14:59:06.536Z,0.73
2022-11-04T15:01:37.976Z,0.75
2022-11-04T15:04:12.077Z,1.27
2022-11-04T15:06:54.986Z,2.75
2022-11-04T15:09:25.843Z,2.00
2022-11-04T15:12:20.608Z,0.52
2022-11-04T15:14:50.145Z,0.38
2022-11-04T15:17:21.338Z,2.20
2022-11-04T15:19:52.188Z,0.75
2022-11-04T15:22:21.294Z,2.65
2022-11-04T15:24:50.670Z,0.82
2022-11-04T15:27:21.518Z,1.05
2022-11-04T15:29:57.959Z,0.95
2022-11-04T15:32:26.678Z,1.02
2022-11-04T15:34:56.986Z,3.40
2022-11-04T15:37:28.969Z,0.70
2022-11-04T15:39:59.601Z,1.63
2022-11-04T15:42:48.828Z,1.17
2022-11-04T15:45:29.535Z,5.50
2022-11-04T15:48:37.943Z,2.50
2022-11-04T15:51:15.565Z,1.48
2022-11-04T15:53:52.800Z,1.73
2022-11-04T15:56:24.305Z,5.93
2022-11-04T15:58:54.378Z,5.68
2022-11-04T16:01:24.140Z,2.53
2022-11-04T16:03:55.387Z,6.60
2022-11-04T16:06:43.111Z,5.97
2022-11-04T16:09:46.538Z,3.25
2022-11-04T16:12:17.413Z,2.47
2022-11-04T16:14:49.678Z,0.65
2022-11-04T16:17:19.356Z,4.95
2022-11-04T16:19:50.082Z,3.38
2022-11-04T16:22:25.083Z,2.22
2022-11-04T16:24:56.751Z,5.15
2022-11-04T16:27:26.111Z,2.13
2022-11-04T16:30:03.305Z,3.80
2022-11-04T16:32:42.464Z,3.15
2022-11-04T16:35:17.189Z,1.67
2022-11-04T16:37:45.677Z,4.20
2022-11-04T16:40:14.478Z,3.30
2022-11-04T16:42:43.207Z,11.25
2022-11-04T16:45:20.610Z,9.05
2022-11-04T16:47:50.368Z,6.32
2022-11-04T16:50:19.308Z,3.20
2022-11-04T16:52:47.808Z,5.57
2022-11-04T16:55:16.538Z,4.10
2022-11-04T16:57:45.808Z,5.65
2022-11-04T17:00:20.857Z,4.95
2022-11-04T17:02:50.428Z,8.40
2022-11-04T17:05:20.426Z,7.70
2022-11-04T17:07:54.621Z,8.02
2022-11-04T17:10:27.142Z,3.13
2022-11-04T17:12:55.376Z,2.97
2022-11-04T17:15:23.660Z,5.28
2022-11-04T17:17:53.137Z,7.10
2022-11-04T17:20:21.387Z,11.02
2022-11-04T17:22:50.197Z,3.75
2022-11-04T17:25:21.548Z,3.38
2022-11-04T17:27:50.162Z,3.05
2022-11-04T17:30:20.327Z,4.10
2022-11-04T17:32:49.498Z,2.72
2022-11-04T17:35:19.345Z,3.72
2022-11-04T17:37:51.899Z,4.97
2022-11-04T17:40:20.938Z,8.23
2022-11-04T17:43:11.461Z,10.13
2022-11-04T17:45:40.369Z,5.85
2022-11-04T17:48:10.250Z,5.43
2022-11-04T17:50:42.235Z,3.63
2022-11-04T17:53:10.886Z,4.60
2022-11-04T17:55:41.206Z,4.25
2022-11-04T17:58:09.851Z,3.42
2022-11-04T18:00:38.256Z,4.55
2022-11-04T18:03:08.977Z,1.38
2022-11-04T18:05:37.435Z,1.75
2022-11-04T18:08:07.018Z,3.47
2022-11-04T18:10:35.214Z,4.85
2022-11-04T18:13:02.422Z,13.50
2022-11-04T18:15:31.116Z,40.53
2022-11-04T18:17:59.868Z,23.90
2022-11-04T18:20:28.135Z,16.75
2022-11-04T18:22:56.399Z,12.20
2022-11-04T18:25:25.938Z,3.97
2022-11-04T18:27:54.341Z,5.40
2022-11-04T18:30:23.572Z,7.38
2022-11-04T18:32:52.605Z,3.42
2022-11-04T18:35:20.855Z,4.47
2022-11-04T18:37:49.336Z,3.40
2022-11-04T18:40:18.051Z,3.30
2022-11-04T18:42:47.446Z,5.80
2022-11-04T18:45:15.648Z,3.90
2022-11-04T18:47:44.648Z,3.30
2022-11-04T18:50:12.758Z,3.25
2022-11-04T18:52:40.794Z,9.35
2022-11-04T18:55:10.033Z,2.75
2022-11-04T18:57:38.147Z,7.35
2022-11-04T19:00:12.881Z,3.28
2022-11-04T19:02:44.094Z,2.67
2022-11-04T19:05:12.345Z,5.55
2022-11-04T19:07:42.050Z,3.60
2022-11-04T19:10:11.499Z,4.82
2022-11-04T19:12:57.818Z,3.92
2022-11-04T19:15:28.097Z,2.22
2022-11-04T19:17:56.298Z,5.72
2022-11-04T19:20:24.827Z,4.38
2022-11-04T19:22:53.065Z,4.35
2022-11-04T19:25:21.376Z,2.72
2022-11-04T19:28:11.658Z,5.25
2022-11-04T19:30:39.808Z,2.08
2022-11-04T19:33:07.949Z,4.10
2022-11-04T19:35:36.890Z,1.67
2022-11-04T19:38:07.160Z,3.80
2022-11-04T19:40:35.579Z,3.88
2022-11-04T19:43:14.767Z,2.33
2022-11-04T19:45:47.109Z,4.10
2022-11-04T19:48:19.427Z,3.10
2022-11-04T19:50:50.008Z,5.97
2022-11-04T19:53:18.377Z,3.33
2022-11-04T19:55:51.157Z,3.13
2022-11-04T19:58:20.207Z,4.03
2022-11-04T20:00:49.921Z,3.22
2022-11-04T20:03:18.248Z,3.45
2022-11-04T20:05:46.902Z,1.30
2022-11-04T20:08:15.218Z,3.22
2022-11-04T20:10:44.518Z,3.13
2022-11-04T20:13:34.066Z,3.28
2022-11-04T20:16:12.099Z,1.48
2022-11-04T20:18:40.278Z,1.70
2022-11-04T20:21:08.438Z,3.45
2022-11-04T20:23:37.296Z,2.55
2022-11-04T20:26:12.080Z,2.28
2022-11-04T20:28:43.817Z,3.53
2022-11-04T20:31:17.882Z,2.97
2022-11-04T20:33:46.718Z,1.42
2022-11-04T20:36:17.019Z,3.15
2022-11-04T20:38:47.156Z,2.08
2022-11-04T20:41:19.587Z,3.28
2022-11-04T20:43:49.517Z,1.83
2022-11-04T20:46:21.930Z,1.67
2022-11-04T20:48:50.844Z,0.77
2022-11-04T20:51:21.790Z,2.28
2022-11-04T20:53:56.277Z,2.60
2022-11-04T20:56:26.029Z,1.02
2022-11-04T20:58:59.027Z,2.67
2022-11-04T21:04:01.985Z,0.98
2022-11-04T21:06:31.025Z,0.95
2022-11-04T21:09:00.837Z,2.80
2022-11-04T21:11:32.190Z,2.05
2022-11-04T21:14:00.604Z,2.13
2022-11-04T21:16:30.602Z,1.73
2022-11-04T21:18:59.709Z,5.78
2022-11-04T21:21:28.528Z,1.35
2022-11-04T21:23:59.149Z,1.83
2022-11-04T21:26:29.169Z,1.27
2022-11-04T21:28:58.582Z,4.88
2022-11-04T21:31:27.190Z,4.65
2022-11-04T21:33:57.780Z,1.05
2022-11-04T21:36:25.956Z,1.55
2022-11-04T21:38:54.539Z,1.70
2022-11-04T21:41:25.268Z,1.02
2022-11-04T21:43:55.827Z,2.40
2022-11-04T21:46:24.609Z,3.88
2022-11-04T21:48:52.927Z,1.73
2022-11-04T21:51:24.166Z,1.35
2022-11-04T21:53:52.650Z,0.88
2022-11-04T21:56:23.169Z,2.28
2022-11-04T21:58:52.501Z,0.55
2022-11-04T22:01:22.494Z,2.42
2022-11-04T22:03:52.252Z,2.25
2022-11-04T22:06:22.190Z,0.70
2022-11-04T22:08:54.244Z,2.00
2022-11-04T22:11:24.780Z,1.48
2022-11-04T22:13:56.972Z,2.42
2022-11-04T22:16:26.948Z,1.70
2022-11-04T22:18:56.302Z,1.48
2022-11-04T22:21:27.114Z,0.85
2022-11-04T22:23:55.674Z,0.52
2022-11-04T22:26:26.357Z,2.50
2022-11-04T22:28:55.637Z,0.70
2022-11-04T22:31:25.535Z,1.85
2022-11-04T22:33:54.449Z,4.10
2022-11-04T22:36:23.396Z,4.00
2022-11-04T22:38:52.877Z,0.95
2022-11-04T22:41:23.249Z,0.47
2022-11-04T22:43:51.468Z,0.60
2022-11-04T22:46:22.587Z,7.72
2022-11-04T22:48:50.859Z,0.70
2022-11-04T22:51:19.308Z,0.80
2022-11-04T22:53:52.666Z,0.75
2022-11-04T22:56:24.926Z,1.55
2022-11-04T22:58:54.333Z,1.88
2022-11-04T23:01:23.399Z,1.42
2022-11-04T23:03:52.097Z,0.95
2022-11-04T23:06:20.829Z,1.30
2022-11-04T23:08:49.254Z,1.30
2022-11-04T23:11:37.157Z,1.00
2022-11-04T23:14:24.277Z,1.77
2022-11-04T23:17:10.931Z,0.40
2022-11-04T23:19:39.505Z,0.68
2022-11-04T23:22:26.298Z,1.83
2022-11-04T23:25:11.841Z,1.58
2022-11-04T23:28:01.927Z,1.13
2022-11-04T23:30:33.432Z,1.95
2022-11-04T23:33:03.429Z,0.98
2022-11-04T23:35:51.427Z,1.35
2022-11-04T23:38:20.279Z,0.35
2022-11-04T23:41:03.367Z,1.83
2022-11-04T23:43:31.716Z,0.73
2022-11-04T23:46:18.377Z,1.67
2022-11-04T23:49:04.564Z,1.92
2022-11-04T23:51:50.137Z,0.93
2022-11-04T23:54:35.736Z,0.65
2022-11-04T23:57:21.657Z,1.10
